sensor_id;sensor_type;location;lat;lon;timestamp;pressure;altitude;pressure_sealevel;temperature;humidity
59987;BME280;46181;51.498;5.392;2024-02-16T00:02:21;100879.2;;;16.26;59.33984
59987;BME280;46181;51.498;5.392;2024-02-16T00:06:51;100877.3;;;16.26;59.29395
59987;BME280;46181;51.498;5.392;2024-02-16T00:11:21;100875.2;;;16.23;59.32422
59987;BME280;46181;51.498;5.392;2024-02-16T00:15:51;100866.4;;;16.21;59.43457
59987;BME280;46181;51.498;5.392;2024-02-16T00:20:21;100864.3;;;16.25;59.42969
59987;BME280;46181;51.498;5.392;2024-02-16T00:24:51;100860.9;;;16.25;59.42969
59987;BME280;46181;51.498;5.392;2024-02-16T00:29:21;100865.2;;;16.23;59.43848
59987;BME280;46181;51.498;5.392;2024-02-16T00:33:51;100867.7;;;16.21;59.48145
59987;BME280;46181;51.498;5.392;2024-02-16T00:38:21;100872;;;16.15;59.51953
59987;BME280;46181;51.498;5.392;2024-02-16T00:42:51;100872.1;;;16.15;60.15723
59987;BME280;46181;51.498;5.392;2024-02-16T00:47:21;100859.6;;;16.14;60.63574
59987;BME280;46181;51.498;5.392;2024-02-16T00:51:51;100855.5;;;16.13;60.91797
59987;BME280;46181;51.498;5.392;2024-02-16T00:56:21;100862.2;;;16.1;61.0498
59987;BME280;46181;51.498;5.392;2024-02-16T01:00:51;100857.3;;;16.04;61.17871
59987;BME280;46181;51.498;5.392;2024-02-16T01:05:21;100853.7;;;16;61.38867
59987;BME280;46181;51.498;5.392;2024-02-16T01:09:51;100853.6;;;15.96;61.54492
59987;BME280;46181;51.498;5.392;2024-02-16T01:14:21;100850;;;15.93;61.69922
59987;BME280;46181;51.498;5.392;2024-02-16T01:18:51;100841.1;;;15.89;61.7627
59987;BME280;46181;51.498;5.392;2024-02-16T01:23:21;100841.3;;;15.87;61.86133
59987;BME280;46181;51.498;5.392;2024-02-16T01:27:51;100839.8;;;15.81;61.87598
59987;BME280;46181;51.498;5.392;2024-02-16T01:32:21;100835;;;15.79;62.00879
59987;BME280;46181;51.498;5.392;2024-02-16T01:36:51;100823.9;;;15.76;62.10742
59987;BME280;46181;51.498;5.392;2024-02-16T01:41:21;100824.7;;;15.75;62.1748
59987;BME280;46181;51.498;5.392;2024-02-16T01:45:51;100820;;;15.73;62.2627
59987;BME280;46181;51.498;5.392;2024-02-16T01:50:21;100811.3;;;15.75;62.34473
59987;BME280;46181;51.498;5.392;2024-02-16T01:54:51;100824;;;15.78;62.40723
59987;BME280;46181;51.498;5.392;2024-02-16T01:59:21;100824.3;;;15.82;62.40039
59987;BME280;46181;51.498;5.392;2024-02-16T02:03:51;100824;;;15.86;62.30371
59987;BME280;46181;51.498;5.392;2024-02-16T02:08:22;100823.3;;;15.84;62.20996
59987;BME280;46181;51.498;5.392;2024-02-16T02:12:51;100822;;;15.84;62.30078
59987;BME280;46181;51.498;5.392;2024-02-16T02:17:21;100807.8;;;15.83;62.3916
59987;BME280;46181;51.498;5.392;2024-02-16T02:21:51;100806.6;;;15.88;62.44238
59987;BME280;46181;51.498;5.392;2024-02-16T02:26:22;100802.9;;;15.97;62.45508
59987;BME280;46181;51.498;5.392;2024-02-16T02:30:51;100798.8;;;16.08;62.32227
59987;BME280;46181;51.498;5.392;2024-02-16T02:35:21;100797;;;16.14;62.20605
59987;BME280;46181;51.498;5.392;2024-02-16T02:39:51;100797.5;;;16.23;62.10352
59987;BME280;46181;51.498;5.392;2024-02-16T02:44:21;100795.8;;;16.26;61.97363
59987;BME280;46181;51.498;5.392;2024-02-16T02:48:51;100794.4;;;16.24;61.84375
59987;BME280;46181;51.498;5.392;2024-02-16T02:53:21;100791.8;;;16.14;61.82031
59987;BME280;46181;51.498;5.392;2024-02-16T02:57:51;100788.1;;;16.04;61.87305
59987;BME280;46181;51.498;5.392;2024-02-16T03:02:21;100781.8;;;15.94;62.01855
59987;BME280;46181;51.498;5.392;2024-02-16T03:06:51;100770.7;;;15.86;62.15527
59987;BME280;46181;51.498;5.392;2024-02-16T03:11:21;100771.6;;;15.8;62.27344
59987;BME280;46181;51.498;5.392;2024-02-16T03:15:51;100773.2;;;15.79;62.36133
59987;BME280;46181;51.498;5.392;2024-02-16T03:20:22;100759.9;;;15.78;62.41699
59987;BME280;46181;51.498;5.392;2024-02-16T03:24:51;100769;;;15.83;62.43652
59987;BME280;46181;51.498;5.392;2024-02-16T03:29:21;100764.4;;;15.9;62.50293
59987;BME280;46181;51.498;5.392;2024-02-16T03:33:51;100762.6;;;16;62.41504
59987;BME280;46181;51.498;5.392;2024-02-16T03:38:21;100767.8;;;16.04;62.29492
59987;BME280;46181;51.498;5.392;2024-02-16T03:42:51;100774.1;;;16.06;62.22852
59987;BME280;46181;51.498;5.392;2024-02-16T03:47:21;100771.5;;;16.07;62.27539
59987;BME280;46181;51.498;5.392;2024-02-16T03:51:51;100776.6;;;16.15;62.30957
59987;BME280;46181;51.498;5.392;2024-02-16T03:56:26;100771.2;;;16.17;62.35938
59987;BME280;46181;51.498;5.392;2024-02-16T04:00:51;100771;;;16.25;62.06152
59987;BME280;46181;51.498;5.392;2024-02-16T04:05:21;100767.7;;;16.22;62.0127
59987;BME280;46181;51.498;5.392;2024-02-16T04:09:51;100772.6;;;16.18;62.00781
59987;BME280;46181;51.498;5.392;2024-02-16T04:14:21;100770.2;;;16.15;62.03711
59987;BME280;46181;51.498;5.392;2024-02-16T04:18:51;100769.6;;;16.16;62.01563
59987;BME280;46181;51.498;5.392;2024-02-16T04:23:21;100775.9;;;16.15;61.91113
59987;BME280;46181;51.498;5.392;2024-02-16T04:27:51;100784.9;;;16.14;61.87695
59987;BME280;46181;51.498;5.392;2024-02-16T04:32:21;100781.2;;;16.1;61.87012
59987;BME280;46181;51.498;5.392;2024-02-16T04:36:51;100779.8;;;16.08;61.83398
59987;BME280;46181;51.498;5.392;2024-02-16T04:41:23;100780;;;16.08;61.77637
59987;BME280;46181;51.498;5.392;2024-02-16T04:45:51;100783.3;;;16.1;61.71094
59987;BME280;46181;51.498;5.392;2024-02-16T04:50:21;100783.1;;;16.15;61.53516
59987;BME280;46181;51.498;5.392;2024-02-16T04:54:51;100790;;;16.2;61.34961
59987;BME280;46181;51.498;5.392;2024-02-16T04:59:21;100786.6;;;16.19;61.16504
59987;BME280;46181;51.498;5.392;2024-02-16T05:03:51;100789.6;;;16.24;61.02344
59987;BME280;46181;51.498;5.392;2024-02-16T05:08:21;100782.7;;;16.27;60.91504
59987;BME280;46181;51.498;5.392;2024-02-16T05:12:51;100789;;;16.35;60.70996
59987;BME280;46181;51.498;5.392;2024-02-16T05:17:21;100789.3;;;16.41;60.44336
59987;BME280;46181;51.498;5.392;2024-02-16T05:21:51;100780.8;;;16.47;60.22363
59987;BME280;46181;51.498;5.392;2024-02-16T05:26:21;100772.9;;;16.52;60.15137
59987;BME280;46181;51.498;5.392;2024-02-16T05:30:51;100775.7;;;16.6;59.97852
59987;BME280;46181;51.498;5.392;2024-02-16T05:35:21;100782.9;;;16.66;59.85059
59987;BME280;46181;51.498;5.392;2024-02-16T05:39:51;100784.5;;;16.72;59.80176
59987;BME280;46181;51.498;5.392;2024-02-16T05:44:21;100782.5;;;16.77;59.5459
59987;BME280;46181;51.498;5.392;2024-02-16T05:48:51;100778.4;;;16.77;59.31543
59987;BME280;46181;51.498;5.392;2024-02-16T05:53:21;100789.9;;;16.73;59.23242
59987;BME280;46181;51.498;5.392;2024-02-16T05:57:51;100793.6;;;16.68;59.24805
59987;BME280;46181;51.498;5.392;2024-02-16T06:02:21;100797.5;;;16.63;59.32227
59987;BME280;46181;51.498;5.392;2024-02-16T06:06:51;100817;;;16.66;59.31445
59987;BME280;46181;51.498;5.392;2024-02-16T06:11:21;100812.5;;;16.66;59.34863
59987;BME280;46181;51.498;5.392;2024-02-16T06:15:51;100819.3;;;16.66;59.29102
59987;BME280;46181;51.498;5.392;2024-02-16T06:20:21;100826.9;;;16.65;59.33594
59987;BME280;46181;51.498;5.392;2024-02-16T06:24:51;100828.8;;;16.69;59.375
59987;BME280;46181;51.498;5.392;2024-02-16T06:29:21;100828.7;;;16.77;59.24707
59987;BME280;46181;51.498;5.392;2024-02-16T06:33:51;100830.8;;;16.86;59.1582
59987;BME280;46181;51.498;5.392;2024-02-16T06:38:21;100831.6;;;16.89;58.99121
59987;BME280;46181;51.498;5.392;2024-02-16T06:42:51;100844.7;;;16.93;58.91797
59987;BME280;46181;51.498;5.392;2024-02-16T06:47:21;100850.3;;;16.95;58.75977
59987;BME280;46181;51.498;5.392;2024-02-16T06:51:51;100856.1;;;16.95;58.74902
59987;BME280;46181;51.498;5.392;2024-02-16T06:56:21;100868.1;;;16.94;58.7002
59987;BME280;46181;51.498;5.392;2024-02-16T07:00:51;100863.8;;;16.93;58.7002
59987;BME280;46181;51.498;5.392;2024-02-16T07:05:21;100874.6;;;16.95;58.66797
59987;BME280;46181;51.498;5.392;2024-02-16T07:09:51;100884.1;;;17;58.68555
59987;BME280;46181;51.498;5.392;2024-02-16T07:14:21;100887.4;;;17.03;58.62012
59987;BME280;46181;51.498;5.392;2024-02-16T07:18:51;100892.2;;;17.03;58.62109
59987;BME280;46181;51.498;5.392;2024-02-16T07:23:21;100903.4;;;17.04;58.68066
59987;BME280;46181;51.498;5.392;2024-02-16T07:27:51;100907.5;;;17.1;58.66504
59987;BME280;46181;51.498;5.392;2024-02-16T07:32:21;100919.7;;;17.17;58.60547
59987;BME280;46181;51.498;5.392;2024-02-16T07:36:51;100914.9;;;17.23;58.55664
59987;BME280;46181;51.498;5.392;2024-02-16T07:41:21;100928.4;;;17.31;58.46387
59987;BME280;46181;51.498;5.392;2024-02-16T07:45:51;100929.5;;;17.4;58.38379
59987;BME280;46181;51.498;5.392;2024-02-16T07:50:22;100928.6;;;17.43;58.32031
59987;BME280;46181;51.498;5.392;2024-02-16T07:54:51;100932.6;;;17.44;58.40137
59987;BME280;46181;51.498;5.392;2024-02-16T07:59:21;100928.4;;;17.43;58.75488
59987;BME280;46181;51.498;5.392;2024-02-16T08:03:51;100930.3;;;17.41;59.00293
59987;BME280;46181;51.498;5.392;2024-02-16T08:08:21;100933;;;17.4;59.18457
59987;BME280;46181;51.498;5.392;2024-02-16T08:12:51;100942.1;;;17.39;59.25195
59987;BME280;46181;51.498;5.392;2024-02-16T08:17:21;100956.2;;;17.37;59.36328
59987;BME280;46181;51.498;5.392;2024-02-16T08:21:51;100957.8;;;17.34;59.74707
59987;BME280;46181;51.498;5.392;2024-02-16T08:26:21;100968.5;;;17.36;60.03516
59987;BME280;46181;51.498;5.392;2024-02-16T08:30:51;100981;;;17.36;60.16211
59987;BME280;46181;51.498;5.392;2024-02-16T08:35:21;100988.1;;;17.38;60.39355
59987;BME280;46181;51.498;5.392;2024-02-16T08:39:51;101000.4;;;17.41;60.48828
59987;BME280;46181;51.498;5.392;2024-02-16T08:44:21;101002.8;;;17.44;60.58496
59987;BME280;46181;51.498;5.392;2024-02-16T08:48:53;101009.8;;;17.46;60.73633
59987;BME280;46181;51.498;5.392;2024-02-16T08:53:21;101015.3;;;17.57;60.78418
59987;BME280;46181;51.498;5.392;2024-02-16T08:57:51;101015.7;;;17.69;60.80078
59987;BME280;46181;51.498;5.392;2024-02-16T09:02:21;101015;;;17.79;60.76855
59987;BME280;46181;51.498;5.392;2024-02-16T09:06:51;101019.8;;;17.9;60.63477
59987;BME280;46181;51.498;5.392;2024-02-16T09:11:21;101028.7;;;18.03;60.60938
59987;BME280;46181;51.498;5.392;2024-02-16T09:15:51;101032;;;18.19;60.43555
59987;BME280;46181;51.498;5.392;2024-02-16T09:20:22;101049.3;;;18.34;60.39746
59987;BME280;46181;51.498;5.392;2024-02-16T09:24:51;101051.3;;;18.47;60.3125
59987;BME280;46181;51.498;5.392;2024-02-16T09:29:21;101057.7;;;18.63;59.9209
59987;BME280;46181;51.498;5.392;2024-02-16T09:33:51;101064.5;;;18.7;59.71387
59987;BME280;46181;51.498;5.392;2024-02-16T09:38:21;101066;;;18.72;59.44141
59987;BME280;46181;51.498;5.392;2024-02-16T09:42:51;101068.5;;;18.74;59.45508
59987;BME280;46181;51.498;5.392;2024-02-16T09:47:22;101077.6;;;18.75;59.41113
59987;BME280;46181;51.498;5.392;2024-02-16T09:51:51;101087.5;;;18.82;59.35156
59987;BME280;46181;51.498;5.392;2024-02-16T09:56:21;101093.5;;;18.95;59.27637
59987;BME280;46181;51.498;5.392;2024-02-16T10:00:52;101108.8;;;19.03;59.06934
59987;BME280;46181;51.498;5.392;2024-02-16T10:05:26;101113.9;;;19.02;58.91895
59987;BME280;46181;51.498;5.392;2024-02-16T10:09:51;101118.5;;;19.06;58.86816
59987;BME280;46181;51.498;5.392;2024-02-16T10:14:21;101121.5;;;19.02;59.05664
59987;BME280;46181;51.498;5.392;2024-02-16T10:18:51;101133.9;;;18.96;59.18555
59987;BME280;46181;51.498;5.392;2024-02-16T10:23:21;101143.5;;;18.94;59.43652
59987;BME280;46181;51.498;5.392;2024-02-16T10:27:55;101149.3;;;18.89;59.68262
59987;BME280;46181;51.498;5.392;2024-02-16T10:32:21;101164.8;;;18.9;59.7627
59987;BME280;46181;51.498;5.392;2024-02-16T10:36:51;101167.4;;;18.84;59.89258
59987;BME280;46181;51.498;5.392;2024-02-16T10:41:21;101172.4;;;18.79;59.9209
59987;BME280;46181;51.498;5.392;2024-02-16T10:45:51;101187.9;;;18.72;59.96777
59987;BME280;46181;51.498;5.392;2024-02-16T10:50:21;101190.3;;;18.55;60.31348
59987;BME280;46181;51.498;5.392;2024-02-16T10:54:51;101191.7;;;18.46;60.90723
59987;BME280;46181;51.498;5.392;2024-02-16T10:59:21;101200.3;;;18.48;61.18457
59987;BME280;46181;51.498;5.392;2024-02-16T11:04:00;101203;;;18.48;61.21875
59987;BME280;46181;51.498;5.392;2024-02-16T11:08:25;101205.4;;;18.44;61.39648
59987;BME280;46181;51.498;5.392;2024-02-16T11:12:51;101213.4;;;18.48;61.40234
59987;BME280;46181;51.498;5.392;2024-02-16T11:17:23;101217.5;;;18.47;61.46973
59987;BME280;46181;51.498;5.392;2024-02-16T11:22:03;101229.5;;;18.4;61.66602
59987;BME280;46181;51.498;5.392;2024-02-16T11:26:21;101233.6;;;18.46;61.50293
59987;BME280;46181;51.498;5.392;2024-02-16T11:30:51;101237.3;;;18.46;61.69727
59987;BME280;46181;51.498;5.392;2024-02-16T11:35:21;101242.3;;;18.35;61.86523
59987;BME280;46181;51.498;5.392;2024-02-16T11:39:51;101249.8;;;18.25;62.22949
59987;BME280;46181;51.498;5.392;2024-02-16T11:44:21;101256.5;;;18.22;62.61426
59987;BME280;46181;51.498;5.392;2024-02-16T11:48:51;101269.7;;;18.17;62.70996
59987;BME280;46181;51.498;5.392;2024-02-16T11:53:23;101275.8;;;18.11;62.90527
59987;BME280;46181;51.498;5.392;2024-02-16T11:57:51;101277.2;;;18.05;63.1377
59987;BME280;46181;51.498;5.392;2024-02-16T12:02:25;101285.5;;;17.98;63.5166
59987;BME280;46181;51.498;5.392;2024-02-16T12:06:51;101275.3;;;18.03;63.67383
59987;BME280;46181;51.498;5.392;2024-02-16T12:11:23;101285.2;;;18.08;63.82813
59987;BME280;46181;51.498;5.392;2024-02-16T12:15:52;101292.9;;;18.12;63.82324
59987;BME280;46181;51.498;5.392;2024-02-16T12:20:23;101299;;;18.05;63.8584
59987;BME280;46181;51.498;5.392;2024-02-16T12:24:51;101302.1;;;18.09;64.22949
59987;BME280;46181;51.498;5.392;2024-02-16T12:29:22;101307.8;;;18.09;64.28809
59987;BME280;46181;51.498;5.392;2024-02-16T12:33:51;101311.7;;;18.13;64.47559
59987;BME280;46181;51.498;5.392;2024-02-16T12:38:21;101324;;;18.13;64.37305
59987;BME280;46181;51.498;5.392;2024-02-16T12:42:51;101330.8;;;18.08;64.35352
59987;BME280;46181;51.498;5.392;2024-02-16T12:47:21;101342.6;;;18;64.43359
59987;BME280;46181;51.498;5.392;2024-02-16T12:51:51;101345.7;;;17.89;64.54492
59987;BME280;46181;51.498;5.392;2024-02-16T12:56:21;101353.5;;;17.82;64.87598
59987;BME280;46181;51.498;5.392;2024-02-16T13:00:51;101361;;;17.82;65.09375
59987;BME280;46181;51.498;5.392;2024-02-16T13:05:21;101383;;;17.78;64.99609
59987;BME280;46181;51.498;5.392;2024-02-16T13:09:51;101393.6;;;17.69;65.16602
59987;BME280;46181;51.498;5.392;2024-02-16T13:14:21;101392;;;17.64;65.31738
59987;BME280;46181;51.498;5.392;2024-02-16T13:18:51;101405.1;;;17.56;65.40918
59987;BME280;46181;51.498;5.392;2024-02-16T13:23:21;101412.1;;;17.54;65.63379
59987;BME280;46181;51.498;5.392;2024-02-16T13:27:51;101416.2;;;17.5;65.53906
59987;BME280;46181;51.498;5.392;2024-02-16T13:32:21;101428.4;;;17.44;65.66602
59987;BME280;46181;51.498;5.392;2024-02-16T13:36:51;101432.2;;;17.48;65.78613
59987;BME280;46181;51.498;5.392;2024-02-16T13:41:21;101430.4;;;17.61;65.9873
59987;BME280;46181;51.498;5.392;2024-02-16T13:46:01;101431.1;;;17.66;66.16602
59987;BME280;46181;51.498;5.392;2024-02-16T13:50:21;101441.2;;;17.91;66.02148
59987;BME280;46181;51.498;5.392;2024-02-16T13:54:51;101447.8;;;18.09;65.84277
59987;BME280;46181;51.498;5.392;2024-02-16T13:59:21;101456.7;;;18.21;65.53906
59987;BME280;46181;51.498;5.392;2024-02-16T14:03:52;101460.7;;;18.21;65.21973
59987;BME280;46181;51.498;5.392;2024-02-16T14:08:21;101470.4;;;18.22;64.93457
59987;BME280;46181;51.498;5.392;2024-02-16T14:12:53;101478.7;;;18.19;64.75977
59987;BME280;46181;51.498;5.392;2024-02-16T14:17:21;101486.3;;;18.19;64.69141
59987;BME280;46181;51.498;5.392;2024-02-16T14:21:51;101487.8;;;18.22;64.62793
59987;BME280;46181;51.498;5.392;2024-02-16T14:26:21;101501.7;;;18.23;64.25
59987;BME280;46181;51.498;5.392;2024-02-16T14:30:51;101505.7;;;18.18;64.12988
59987;BME280;46181;51.498;5.392;2024-02-16T14:35:21;101517.9;;;18.13;64.24609
59987;BME280;46181;51.498;5.392;2024-02-16T14:39:51;101514.6;;;18.1;64.12891
59987;BME280;46181;51.498;5.392;2024-02-16T14:44:21;101527;;;18.08;64.01074
59987;BME280;46181;51.498;5.392;2024-02-16T14:48:51;101534.8;;;18.03;63.71973
59987;BME280;46181;51.498;5.392;2024-02-16T14:53:21;101540.1;;;17.96;63.64063
59987;BME280;46181;51.498;5.392;2024-02-16T14:57:52;101540.3;;;17.89;63.61914
59987;BME280;46181;51.498;5.392;2024-02-16T15:02:21;101552.4;;;17.87;63.80957
59987;BME280;46181;51.498;5.392;2024-02-16T15:06:51;101561.3;;;17.85;63.62402
59987;BME280;46181;51.498;5.392;2024-02-16T15:11:21;101566.9;;;17.87;63.87793
59987;BME280;46181;51.498;5.392;2024-02-16T15:15:51;101570.5;;;17.92;63.7832
59987;BME280;46181;51.498;5.392;2024-02-16T15:20:21;101583.2;;;18;63.78223
59987;BME280;46181;51.498;5.392;2024-02-16T15:24:51;101587.3;;;18.03;63.50098
59987;BME280;46181;51.498;5.392;2024-02-16T15:29:21;101588.1;;;18.06;63.49512
59987;BME280;46181;51.498;5.392;2024-02-16T15:33:51;101591.6;;;18.13;63.42383
59987;BME280;46181;51.498;5.392;2024-02-16T15:38:21;101599.6;;;18.15;63.16406
59987;BME280;46181;51.498;5.392;2024-02-16T15:43:02;101601.5;;;18.17;63.24707
59987;BME280;46181;51.498;5.392;2024-02-16T15:47:21;101609.4;;;18.23;63.30078
59987;BME280;46181;51.498;5.392;2024-02-16T15:51:52;101622.9;;;18.3;63.00195
59987;BME280;46181;51.498;5.392;2024-02-16T15:56:21;101624.6;;;18.32;63.0625
59987;BME280;46181;51.498;5.392;2024-02-16T16:00:51;101637.1;;;18.33;62.96094
59987;BME280;46181;51.498;5.392;2024-02-16T16:05:21;101644.6;;;18.29;62.74902
59987;BME280;46181;51.498;5.392;2024-02-16T16:09:54;101658.9;;;18.23;62.61621
59987;BME280;46181;51.498;5.392;2024-02-16T16:14:21;101661.3;;;18.13;62.60059
59987;BME280;46181;51.498;5.392;2024-02-16T16:18:51;101665.9;;;18.06;62.46484
59987;BME280;46181;51.498;5.392;2024-02-16T16:23:21;101680.9;;;17.88;62.45215
59987;BME280;46181;51.498;5.392;2024-02-16T16:27:54;101685.9;;;17.66;62.55762
59987;BME280;46181;51.498;5.392;2024-02-16T16:32:21;101693.5;;;17.51;62.91309
59987;BME280;46181;51.498;5.392;2024-02-16T16:36:51;101696.2;;;17.31;62.96484
59987;BME280;46181;51.498;5.392;2024-02-16T16:41:22;101705.7;;;17.11;63.11914
59987;BME280;46181;51.498;5.392;2024-02-16T16:45:51;101710;;;16.92;63.33203
59987;BME280;46181;51.498;5.392;2024-02-16T16:50:24;101717.5;;;16.74;63.68164
59987;BME280;46181;51.498;5.392;2024-02-16T16:54:51;101723.3;;;16.7;63.9043
59987;BME280;46181;51.498;5.392;2024-02-16T16:59:22;101734.9;;;16.68;63.92383
59987;BME280;46181;51.498;5.392;2024-02-16T17:03:51;101749;;;16.67;63.99121
59987;BME280;46181;51.498;5.392;2024-02-16T17:08:21;101761.7;;;16.69;64.08496
59987;BME280;46181;51.498;5.392;2024-02-16T17:12:51;101775.2;;;16.75;64.08105
59987;BME280;46181;51.498;5.392;2024-02-16T17:17:22;101787.3;;;16.82;64.10449
59987;BME280;46181;51.498;5.392;2024-02-16T17:21:51;101794.7;;;16.93;63.99414
59987;BME280;46181;51.498;5.392;2024-02-16T17:26:21;101806.2;;;17.03;63.96191
59987;BME280;46181;51.498;5.392;2024-02-16T17:30:51;101817.4;;;17.03;63.75684
59987;BME280;46181;51.498;5.392;2024-02-16T17:35:22;101809.2;;;16.91;63.62695
59987;BME280;46181;51.498;5.392;2024-02-16T17:39:51;101824.4;;;16.77;63.6748
59987;BME280;46181;51.498;5.392;2024-02-16T17:44:21;101831.6;;;16.68;63.93555
59987;BME280;46181;51.498;5.392;2024-02-16T17:48:51;101843.6;;;16.65;64.18359
59987;BME280;46181;51.498;5.392;2024-02-16T17:53:21;101848.6;;;16.67;64.17285
59987;BME280;46181;51.498;5.392;2024-02-16T17:57:51;101853.6;;;16.65;64.18359
59987;BME280;46181;51.498;5.392;2024-02-16T18:02:21;101850.4;;;16.6;64.28809
59987;BME280;46181;51.498;5.392;2024-02-16T18:06:51;101861.2;;;16.61;64.3125
59987;BME280;46181;51.498;5.392;2024-02-16T18:11:21;101872.2;;;16.63;64.42969
59987;BME280;46181;51.498;5.392;2024-02-16T18:15:51;101884.6;;;16.65;64.27344
59987;BME280;46181;51.498;5.392;2024-02-16T18:20:22;101886.4;;;16.58;64.12598
59987;BME280;46181;51.498;5.392;2024-02-16T18:24:51;101896.8;;;16.48;64.16797
59987;BME280;46181;51.498;5.392;2024-02-16T18:29:22;101903.5;;;16.39;64.24609
59987;BME280;46181;51.498;5.392;2024-02-16T18:33:51;101912.4;;;16.28;64.29883
59987;BME280;46181;51.498;5.392;2024-02-16T18:38:21;101921.7;;;16.19;64.43262
59987;BME280;46181;51.498;5.392;2024-02-16T18:42:51;101942.4;;;16.1;64.52148
59987;BME280;46181;51.498;5.392;2024-02-16T18:47:21;101947.4;;;16.05;64.57227
59987;BME280;46181;51.498;5.392;2024-02-16T18:51:51;101958.1;;;16.02;64.56836
59987;BME280;46181;51.498;5.392;2024-02-16T18:56:21;101964.4;;;15.96;64.50195
59987;BME280;46181;51.498;5.392;2024-02-16T19:00:52;101961.9;;;15.89;64.4707
59987;BME280;46181;51.498;5.392;2024-02-16T19:05:22;101969.1;;;15.84;64.46289
59987;BME280;46181;51.498;5.392;2024-02-16T19:09:52;101969.2;;;15.78;64.47754
59987;BME280;46181;51.498;5.392;2024-02-16T19:14:21;101973;;;15.74;64.40234
59987;BME280;46181;51.498;5.392;2024-02-16T19:18:51;101984;;;15.69;64.46289
59987;BME280;46181;51.498;5.392;2024-02-16T19:23:22;101986.5;;;15.6;64.42676
59987;BME280;46181;51.498;5.392;2024-02-16T19:27:51;101988.9;;;15.52;64.42676
59987;BME280;46181;51.498;5.392;2024-02-16T19:32:21;101992.4;;;15.42;64.38965
59987;BME280;46181;51.498;5.392;2024-02-16T19:36:51;101995.9;;;15.29;64.40625
59987;BME280;46181;51.498;5.392;2024-02-16T19:41:21;102001;;;15.2;64.4248
59987;BME280;46181;51.498;5.392;2024-02-16T19:45:52;102009.6;;;15.15;64.62207
59987;BME280;46181;51.498;5.392;2024-02-16T19:50:21;102013.8;;;15.08;64.59082
59987;BME280;46181;51.498;5.392;2024-02-16T19:54:52;102017.3;;;14.98;64.5293
59987;BME280;46181;51.498;5.392;2024-02-16T19:59:22;102024.7;;;14.86;64.4668
59987;BME280;46181;51.498;5.392;2024-02-16T20:03:51;102038.4;;;14.88;64.93457
59987;BME280;46181;51.498;5.392;2024-02-16T20:08:21;102043.6;;;14.97;64.8916
59987;BME280;46181;51.498;5.392;2024-02-16T20:12:52;102052.7;;;14.93;64.45508
59987;BME280;46181;51.498;5.392;2024-02-16T20:17:21;102056.9;;;14.76;64.30469
59987;BME280;46181;51.498;5.392;2024-02-16T20:21:51;102071;;;14.64;64.42383
59987;BME280;46181;51.498;5.392;2024-02-16T20:26:25;102080.3;;;14.52;64.46387
59987;BME280;46181;51.498;5.392;2024-02-16T20:30:51;102084.6;;;14.4;64.5127
59987;BME280;46181;51.498;5.392;2024-02-16T20:35:22;102093;;;14.27;64.4375
59987;BME280;46181;51.498;5.392;2024-02-16T20:39:51;102100.3;;;14.18;64.58203
59987;BME280;46181;51.498;5.392;2024-02-16T20:44:22;102110.4;;;14.09;64.61523
59987;BME280;46181;51.498;5.392;2024-02-16T20:48:51;102116.1;;;14;64.72656
59987;BME280;46181;51.498;5.392;2024-02-16T20:53:21;102124.1;;;13.95;64.77637
59987;BME280;46181;51.498;5.392;2024-02-16T20:57:52;102124;;;13.88;64.80957
59987;BME280;46181;51.498;5.392;2024-02-16T21:02:22;102135.9;;;13.83;64.82422
59987;BME280;46181;51.498;5.392;2024-02-16T21:06:52;102137.8;;;13.76;64.86035
59987;BME280;46181;51.498;5.392;2024-02-16T21:11:23;102147.1;;;13.7;64.76074
59987;BME280;46181;51.498;5.392;2024-02-16T21:15:52;102156;;;13.65;64.69727
59987;BME280;46181;51.498;5.392;2024-02-16T21:20:22;102161.9;;;13.6;64.73535
59987;BME280;46181;51.498;5.392;2024-02-16T21:24:52;102176.6;;;13.55;64.77344
59987;BME280;46181;51.498;5.392;2024-02-16T21:29:22;102180.9;;;13.53;65.0293
59987;BME280;46181;51.498;5.392;2024-02-16T21:33:52;102182;;;13.64;65.36426
59987;BME280;46181;51.498;5.392;2024-02-16T21:38:22;102185.6;;;13.8;65.33105
59987;BME280;46181;51.498;5.392;2024-02-16T21:42:52;102188.5;;;13.9;65.25586
59987;BME280;46181;51.498;5.392;2024-02-16T21:47:22;102193.5;;;14;65.15527
59987;BME280;46181;51.498;5.392;2024-02-16T21:51:52;102196.5;;;14.06;64.91699
59987;BME280;46181;51.498;5.392;2024-02-16T21:56:22;102205.9;;;14.14;65.01953
59987;BME280;46181;51.498;5.392;2024-02-16T22:00:52;102206.4;;;14.27;64.98145
59987;BME280;46181;51.498;5.392;2024-02-16T22:05:22;102214.4;;;14.39;64.8291
59987;BME280;46181;51.498;5.392;2024-02-16T22:09:52;102218.7;;;14.47;64.68359
59987;BME280;46181;51.498;5.392;2024-02-16T22:14:22;102231.7;;;14.49;64.52734
59987;BME280;46181;51.498;5.392;2024-02-16T22:18:52;102236.6;;;14.5;64.40234
59987;BME280;46181;51.498;5.392;2024-02-16T22:23:22;102245.4;;;14.51;64.4502
59987;BME280;46181;51.498;5.392;2024-02-16T22:27:52;102246.9;;;14.57;64.41211
59987;BME280;46181;51.498;5.392;2024-02-16T22:32:22;102249.9;;;14.63;64.2627
59987;BME280;46181;51.498;5.392;2024-02-16T22:36:52;102254.2;;;14.66;64.1084
59987;BME280;46181;51.498;5.392;2024-02-16T22:41:22;102259.4;;;14.68;64.06641
59987;BME280;46181;51.498;5.392;2024-02-16T22:45:52;102267.5;;;14.68;64.06641
59987;BME280;46181;51.498;5.392;2024-02-16T22:50:22;102269.5;;;14.63;63.92188
59987;BME280;46181;51.498;5.392;2024-02-16T22:54:52;102277.2;;;14.46;63.72852
59987;BME280;46181;51.498;5.392;2024-02-16T22:59:22;102273.4;;;14.27;63.82617
59987;BME280;46181;51.498;5.392;2024-02-16T23:03:52;102277.1;;;14.1;63.86914